Kanorado, Kansas
Current Conditions -  °F | °C
As of 3:53 PM on Sunday 21 Dec 2014 (Local Time) from KITR Reporting Station
Overcast Overcast  
Wind Chill: 40°   Ceiling: 10000
Heat Index: 43°   Visibility: 10mi
Dew Point: 33°   Wind: 5mph
Humidity: 68%   Direction: 200°SSW
Pressure: 29.53"   Gusts: NA
Location:  39.33°N, 102.04°W
Report Text: KITR 212253Z AUTO 20004KT 10SM OVC100 06/01 A2953 RMK AO2 SLP003 T00610006
Loading
Personal Weather Stations






























Interactive Weather Map New forecast layout! Learn more

10-Day Weather Forecast

Advertisements
Track Severe Weather on mobile